createdAt,value
2023-10-26T00:02:13.465Z,70.83
2023-10-26T00:04:40.181Z,71.12
2023-10-26T00:07:07.057Z,70.96
2023-10-26T00:09:33.767Z,70.74
2023-10-26T00:12:00.678Z,71.06
2023-10-26T00:14:27.316Z,72.09
2023-10-26T00:16:54.148Z,73.23
2023-10-26T00:19:21.349Z,73.30
2023-10-26T00:21:48.368Z,73.58
2023-10-26T00:24:15.672Z,73.22
2023-10-26T00:26:42.499Z,73.86
2023-10-26T00:29:09.367Z,73.88
2023-10-26T00:31:36.020Z,73.83
2023-10-26T00:34:02.667Z,74.77
2023-10-26T00:36:30.192Z,74.41
2023-10-26T00:38:57.087Z,74.67
2023-10-26T00:41:23.808Z,75.33
2023-10-26T00:43:50.609Z,75.22
2023-10-26T00:46:17.772Z,74.89
2023-10-26T00:48:44.853Z,75.67
2023-10-26T00:51:12.043Z,75.75
2023-10-26T00:53:41.129Z,76.03
2023-10-26T00:56:09.803Z,76.33
2023-10-26T00:58:36.673Z,76.30
2023-10-26T01:01:04.288Z,77.15
2023-10-26T01:03:32.832Z,77.14
2023-10-26T01:05:59.772Z,77.43
2023-10-26T01:08:27.026Z,77.15
2023-10-26T01:10:57.389Z,77.40
2023-10-26T01:13:25.250Z,77.72
2023-10-26T01:15:51.875Z,76.93
2023-10-26T01:18:18.770Z,76.50
2023-10-26T01:20:45.774Z,76.18
2023-10-26T01:23:12.746Z,76.38
2023-10-26T01:25:40.104Z,76.34
2023-10-26T01:28:07.760Z,76.04
2023-10-26T01:30:35.520Z,76.06
2023-10-26T01:33:02.443Z,76.23
2023-10-26T01:35:38.697Z,76.34
2023-10-26T01:38:05.361Z,76.74
2023-10-26T01:40:33.071Z,77.02
2023-10-26T01:42:59.947Z,77.49
2023-10-26T01:45:26.657Z,77.29
2023-10-26T01:47:54.892Z,77.27
2023-10-26T01:50:21.773Z,76.98
2023-10-26T01:52:48.445Z,76.79
2023-10-26T01:55:16.282Z,77.48
2023-10-26T01:57:44.552Z,77.71
2023-10-26T02:00:12.197Z,78.34
2023-10-26T02:02:39.202Z,78.64
2023-10-26T02:05:06.239Z,79.40
2023-10-26T02:07:34.332Z,80.88
2023-10-26T02:10:01.050Z,81.75
2023-10-26T02:12:27.873Z,82.61
2023-10-26T02:14:54.562Z,84.38
2023-10-26T02:17:21.340Z,83.79
2023-10-26T02:19:48.081Z,84.33
2023-10-26T02:22:14.779Z,84.35
2023-10-26T02:24:42.214Z,84.42
2023-10-26T02:27:09.108Z,84.85
2023-10-26T02:29:36.160Z,85.29
2023-10-26T02:32:03.258Z,85.93
2023-10-26T02:34:29.925Z,86.43
2023-10-26T02:36:57.960Z,86.67
2023-10-26T02:39:25.548Z,87.00
2023-10-26T02:41:52.706Z,87.33
2023-10-26T02:44:19.385Z,87.10
2023-10-26T02:46:46.036Z,86.78
2023-10-26T02:49:12.820Z,86.70
2023-10-26T02:51:40.754Z,86.54
2023-10-26T02:54:07.650Z,86.47
2023-10-26T02:56:34.400Z,86.47
2023-10-26T02:59:01.185Z,86.06
2023-10-26T03:01:35.226Z,85.84
2023-10-26T03:04:03.074Z,85.85
2023-10-26T03:06:37.292Z,85.66
2023-10-26T03:09:05.468Z,85.80
2023-10-26T03:11:32.708Z,85.06
2023-10-26T03:13:59.359Z,85.36
2023-10-26T03:16:26.181Z,86.54
2023-10-26T03:18:53.182Z,86.19
2023-10-26T03:21:21.182Z,86.37
2023-10-26T03:23:53.943Z,86.05
2023-10-26T03:26:21.421Z,86.23
2023-10-26T03:28:52.236Z,85.30
2023-10-26T03:31:19.456Z,84.55
2023-10-26T03:33:46.441Z,84.05
2023-10-26T03:36:20.593Z,83.62
2023-10-26T03:38:47.862Z,83.66
2023-10-26T03:41:14.671Z,83.56
2023-10-26T03:43:41.456Z,83.73
2023-10-26T03:46:08.577Z,83.85
2023-10-26T03:48:36.363Z,83.59
2023-10-26T03:51:03.587Z,83.85
2023-10-26T03:53:30.796Z,83.17
2023-10-26T03:55:58.439Z,83.09
2023-10-26T03:58:26.020Z,82.67
2023-10-26T04:00:52.764Z,82.57
2023-10-26T04:03:19.702Z,82.28
2023-10-26T04:05:46.650Z,82.24
2023-10-26T04:08:13.579Z,81.79
2023-10-26T04:10:42.948Z,81.04
2023-10-26T04:13:09.857Z,80.15
2023-10-26T04:15:36.631Z,78.48
2023-10-26T04:18:05.037Z,77.19
2023-10-26T04:20:32.342Z,76.65
2023-10-26T04:22:59.028Z,76.59
2023-10-26T04:25:42.213Z,76.84
2023-10-26T04:28:16.463Z,77.01
2023-10-26T04:30:45.467Z,77.01
2023-10-26T04:33:12.372Z,76.97
2023-10-26T04:35:43.693Z,77.19
2023-10-26T04:38:10.613Z,77.16
2023-10-26T04:40:39.546Z,77.04
2023-10-26T04:43:06.963Z,74.96
2023-10-26T04:45:34.707Z,73.20
2023-10-26T04:48:01.760Z,72.40
2023-10-26T04:50:30.724Z,71.99
2023-10-26T04:53:03.012Z,72.88
2023-10-26T04:55:35.897Z,72.42
2023-10-26T04:58:03.738Z,72.77
2023-10-26T05:00:31.208Z,73.08
2023-10-26T05:02:58.412Z,73.41
2023-10-26T05:05:25.802Z,73.35
2023-10-26T05:07:53.152Z,73.26
2023-10-26T05:10:20.822Z,73.25
2023-10-26T05:12:47.597Z,73.23
2023-10-26T05:15:14.564Z,73.22
2023-10-26T05:17:46.500Z,73.29
2023-10-26T05:20:13.742Z,73.35
2023-10-26T05:22:40.595Z,73.66
2023-10-26T05:25:08.763Z,73.56
2023-10-26T05:27:37.113Z,73.23
2023-10-26T05:30:06.270Z,72.67
2023-10-26T05:32:33.649Z,72.95
2023-10-26T05:35:00.551Z,73.03
2023-10-26T05:37:27.377Z,73.07
2023-10-26T05:39:56.853Z,73.01
2023-10-26T05:42:24.211Z,73.29
2023-10-26T05:44:51.589Z,73.42
2023-10-26T05:47:21.997Z,73.44
2023-10-26T05:49:51.795Z,73.33
2023-10-26T05:52:19.259Z,73.82
2023-10-26T05:54:47.992Z,72.69
2023-10-26T05:57:16.268Z,72.44
2023-10-26T05:59:43.654Z,72.29
2023-10-26T06:02:11.139Z,72.14
2023-10-26T06:04:38.435Z,72.26
2023-10-26T06:07:05.318Z,72.30
2023-10-26T06:09:32.206Z,72.44
2023-10-26T06:11:59.273Z,72.42
2023-10-26T06:14:26.265Z,72.18
2023-10-26T06:16:53.263Z,71.50
2023-10-26T06:19:22.585Z,71.26
2023-10-26T06:21:49.471Z,71.23
2023-10-26T06:24:16.309Z,70.72
2023-10-26T06:26:43.114Z,70.94
2023-10-26T06:29:09.812Z,70.79
2023-10-26T06:31:36.921Z,70.82
2023-10-26T06:34:04.138Z,71.18
2023-10-26T06:36:31.118Z,71.49
2023-10-26T06:39:00.155Z,71.30
2023-10-26T06:41:27.238Z,70.89
2023-10-26T06:43:54.397Z,70.77
2023-10-26T06:46:21.129Z,70.69
2023-10-26T06:48:48.742Z,70.03
2023-10-26T06:51:16.032Z,69.55
2023-10-26T06:53:42.901Z,68.98
2023-10-26T06:56:13.356Z,68.56
2023-10-26T06:58:42.698Z,67.96
2023-10-26T07:01:19.612Z,65.56
2023-10-26T07:03:50.176Z,65.79
2023-10-26T07:06:20.457Z,65.83
2023-10-26T07:08:48.969Z,65.21
2023-10-26T07:11:21.058Z,64.98
2023-10-26T07:13:51.484Z,63.39
2023-10-26T07:16:18.852Z,62.89
2023-10-26T07:18:52.196Z,63.04
2023-10-26T07:21:20.219Z,61.69
2023-10-26T07:23:47.401Z,59.21
2023-10-26T07:26:18.709Z,58.38
2023-10-26T07:28:46.579Z,57.25
2023-10-26T07:31:20.624Z,54.46
2023-10-26T07:33:49.875Z,55.35
2023-10-26T07:36:17.617Z,54.75
2023-10-26T07:39:45.879Z,53.73
2023-10-26T07:42:06.985Z,54.19
2023-10-26T07:44:38.484Z,54.01
2023-10-26T07:47:46.289Z,53.99
2023-10-26T07:50:21.963Z,55.31
2023-10-26T07:52:56.794Z,56.01
2023-10-26T07:55:58.534Z,56.87
2023-10-26T07:58:28.236Z,56.23
2023-10-26T08:00:59.285Z,56.19
2023-10-26T08:03:28.561Z,56.29
2023-10-26T08:06:19.009Z,55.88
2023-10-26T08:08:46.515Z,55.28
2023-10-26T08:11:17.351Z,54.77
2023-10-26T08:13:45.645Z,55.11
2023-10-26T08:16:43.886Z,55.04
2023-10-26T08:19:00.137Z,54.67
2023-10-26T08:21:27.957Z,52.70
2023-10-26T08:23:55.212Z,50.13
2023-10-26T08:26:22.614Z,52.08
2023-10-26T08:29:16.186Z,52.16
2023-10-26T08:32:04.677Z,52.84
2023-10-26T08:34:45.564Z,53.84
2023-10-26T08:37:20.196Z,55.12
2023-10-26T08:39:50.896Z,56.01
2023-10-26T08:42:18.989Z,56.91
2023-10-26T08:44:45.935Z,58.15
2023-10-26T08:47:17.816Z,59.42
2023-10-26T08:49:50.313Z,61.11
2023-10-26T08:52:23.214Z,63.09
2023-10-26T08:54:51.607Z,64.10
2023-10-26T08:57:18.302Z,66.70
2023-10-26T08:59:45.365Z,68.82
2023-10-26T09:02:12.271Z,70.25
2023-10-26T09:05:03.334Z,71.03
2023-10-26T09:07:30.645Z,71.05
2023-10-26T09:09:58.212Z,70.29
2023-10-26T09:12:25.435Z,71.21
2023-10-26T09:15:03.287Z,71.16
2023-10-26T09:17:31.735Z,71.61
2023-10-26T09:19:59.245Z,71.56
2023-10-26T09:22:39.131Z,72.35
2023-10-26T09:25:13.326Z,71.87
2023-10-26T09:27:41.651Z,71.54
2023-10-26T09:30:29.087Z,71.57
2023-10-26T09:33:00.183Z,70.04
2023-10-26T09:35:34.537Z,68.24
2023-10-26T09:38:01.400Z,68.29
2023-10-26T09:40:28.803Z,68.69
2023-10-26T09:42:59.312Z,68.93
2023-10-26T09:45:26.976Z,69.92
2023-10-26T09:47:54.324Z,69.83
2023-10-26T09:50:21.714Z,70.30
2023-10-26T09:52:49.653Z,69.27
2023-10-26T09:55:17.514Z,69.01
2023-10-26T09:57:58.794Z,68.54
2023-10-26T10:00:32.467Z,68.84
2023-10-26T10:03:20.305Z,68.43
2023-10-26T10:05:48.260Z,67.78
2023-10-26T10:08:57.870Z,67.85
2023-10-26T10:11:26.572Z,66.76
2023-10-26T10:13:53.866Z,65.79
2023-10-26T10:16:36.705Z,65.69
2023-10-26T10:19:26.450Z,66.10
2023-10-26T10:21:53.476Z,65.72
2023-10-26T10:24:39.505Z,64.48
2023-10-26T10:27:16.493Z,64.68
2023-10-26T10:29:43.629Z,64.38
2023-10-26T10:32:47.910Z,64.31
2023-10-26T10:35:21.321Z,63.43
2023-10-26T10:38:09.894Z,62.50
2023-10-26T10:40:38.927Z,62.41
2023-10-26T10:43:06.132Z,62.37
2023-10-26T10:45:33.006Z,61.25
2023-10-26T10:48:05.451Z,60.99
2023-10-26T10:50:32.226Z,60.43
2023-10-26T10:52:58.926Z,60.35
2023-10-26T10:55:27.286Z,59.97
2023-10-26T10:57:56.482Z,58.81
2023-10-26T11:00:25.233Z,58.15
2023-10-26T11:02:57.320Z,58.90
2023-10-26T11:05:40.706Z,58.72
2023-10-26T11:08:08.718Z,58.80
2023-10-26T11:10:36.177Z,57.67
2023-10-26T11:13:03.624Z,57.54
2023-10-26T11:15:39.656Z,56.32
2023-10-26T11:18:08.353Z,56.86
2023-10-26T11:20:42.626Z,57.07
2023-10-26T11:23:11.568Z,56.77
2023-10-26T11:25:39.022Z,56.86
2023-10-26T11:28:07.719Z,56.40
2023-10-26T11:30:48.995Z,56.40
2023-10-26T11:33:37.803Z,56.53
2023-10-26T11:36:11.841Z,56.14
2023-10-26T11:38:51.637Z,55.80
2023-10-26T11:41:25.889Z,55.90
2023-10-26T11:43:52.991Z,55.76
2023-10-26T11:46:36.008Z,55.36
2023-10-26T11:49:04.631Z,55.25
2023-10-26T11:51:32.507Z,55.39
2023-10-26T11:54:12.653Z,55.39
2023-10-26T11:56:39.491Z,55.44
2023-10-26T11:59:06.220Z,55.52
2023-10-26T12:01:33.023Z,55.80
2023-10-26T12:04:00.243Z,55.94
2023-10-26T12:06:30.322Z,55.72
2023-10-26T12:08:57.090Z,55.86
2023-10-26T12:11:24.230Z,55.49
2023-10-26T12:13:51.020Z,55.18
2023-10-26T12:16:17.937Z,55.07
2023-10-26T12:18:44.610Z,54.72
2023-10-26T12:21:11.309Z,54.97
2023-10-26T12:23:37.998Z,54.82
2023-10-26T12:26:04.773Z,54.41
2023-10-26T12:28:31.493Z,54.69
2023-10-26T12:30:58.347Z,55.15
2023-10-26T12:33:25.670Z,54.86
2023-10-26T12:35:52.489Z,54.65
2023-10-26T12:38:20.320Z,55.20
2023-10-26T12:40:48.680Z,55.71
2023-10-26T12:43:15.534Z,55.74
2023-10-26T12:45:42.220Z,55.66
2023-10-26T12:48:08.971Z,55.44
2023-10-26T12:50:35.752Z,55.49
2023-10-26T12:53:02.561Z,56.09
2023-10-26T12:55:30.583Z,56.53
2023-10-26T12:57:59.139Z,56.89
2023-10-26T13:00:26.755Z,57.56
2023-10-26T13:02:53.403Z,57.08
2023-10-26T13:05:20.136Z,56.58
2023-10-26T13:07:46.876Z,56.94
2023-10-26T13:10:13.863Z,57.00
2023-10-26T13:12:40.790Z,57.20
2023-10-26T13:15:07.798Z,57.89
2023-10-26T13:17:34.713Z,58.98
2023-10-26T13:20:01.681Z,59.82
2023-10-26T13:22:28.449Z,60.61
2023-10-26T13:24:55.277Z,61.96
2023-10-26T13:27:22.158Z,62.52
2023-10-26T13:29:49.724Z,62.81
2023-10-26T13:32:16.451Z,62.84
2023-10-26T13:34:43.465Z,64.08
2023-10-26T13:37:10.521Z,64.43
2023-10-26T13:39:38.059Z,64.85
2023-10-26T13:42:05.256Z,65.94
2023-10-26T13:44:32.088Z,66.39
2023-10-26T13:46:59.113Z,66.89
2023-10-26T13:49:25.826Z,67.07
2023-10-26T13:51:52.705Z,66.85
2023-10-26T13:54:19.646Z,67.05
2023-10-26T13:56:46.393Z,67.45
2023-10-26T13:59:13.091Z,67.56
2023-10-26T14:01:40.084Z,67.97
2023-10-26T14:04:07.068Z,68.17
2023-10-26T14:06:33.877Z,68.29
2023-10-26T14:09:01.157Z,68.38
2023-10-26T14:11:30.421Z,69.17
2023-10-26T14:13:57.987Z,69.65
2023-10-26T14:16:25.573Z,69.48
2023-10-26T14:18:52.352Z,68.86
2023-10-26T14:21:19.156Z,69.35
2023-10-26T14:23:45.894Z,70.13
2023-10-26T14:26:12.738Z,69.60
2023-10-26T14:28:39.449Z,69.97
2023-10-26T14:31:06.307Z,69.74
2023-10-26T14:33:33.271Z,70.32
2023-10-26T14:36:00.115Z,71.01
2023-10-26T14:38:26.982Z,70.89
2023-10-26T14:40:58.085Z,70.63
2023-10-26T14:43:26.217Z,71.27
2023-10-26T14:45:53.169Z,71.64
2023-10-26T14:48:20.676Z,70.78
2023-10-26T14:50:47.521Z,70.67
2023-10-26T14:53:15.077Z,70.48
2023-10-26T14:55:41.938Z,69.95
2023-10-26T14:58:08.774Z,70.00
2023-10-26T15:00:37.885Z,70.36
2023-10-26T15:03:05.816Z,70.53
2023-10-26T15:05:36.634Z,70.29
2023-10-26T15:08:04.152Z,70.25
2023-10-26T15:10:34.943Z,69.92
2023-10-26T15:13:05.063Z,70.45
2023-10-26T15:15:31.887Z,70.50
2023-10-26T15:17:58.709Z,70.19
2023-10-26T15:20:25.574Z,70.47
2023-10-26T15:22:52.228Z,70.36
2023-10-26T15:25:19.028Z,70.74
2023-10-26T15:27:45.746Z,71.00
2023-10-26T15:30:12.962Z,70.80
2023-10-26T15:32:39.757Z,70.48
2023-10-26T15:35:06.920Z,70.37
2023-10-26T15:37:33.680Z,70.14
2023-10-26T15:40:00.380Z,69.81
2023-10-26T15:42:27.566Z,69.75
2023-10-26T15:44:55.251Z,69.46
2023-10-26T15:47:22.383Z,68.96
2023-10-26T15:49:49.862Z,68.81
2023-10-26T15:52:20.039Z,68.69
2023-10-26T15:54:47.165Z,68.56
2023-10-26T15:57:15.380Z,68.16
2023-10-26T15:59:42.118Z,68.32
2023-10-26T16:02:08.901Z,68.61
2023-10-26T16:04:35.873Z,68.55
2023-10-26T16:07:02.814Z,68.69
2023-10-26T16:09:31.118Z,68.38
2023-10-26T16:11:58.711Z,68.40
2023-10-26T16:14:27.527Z,67.73
2023-10-26T16:16:54.409Z,67.90
2023-10-26T16:19:22.392Z,67.73
2023-10-26T16:21:49.119Z,67.90
2023-10-26T16:24:18.408Z,68.41
2023-10-26T16:26:45.168Z,68.36
2023-10-26T16:29:11.927Z,68.45
2023-10-26T16:31:38.727Z,69.27
2023-10-26T16:34:05.867Z,69.75
2023-10-26T16:36:35.790Z,70.00
2023-10-26T16:39:03.384Z,70.38
2023-10-26T16:41:30.053Z,70.80
2023-10-26T16:44:00.341Z,70.99
2023-10-26T16:46:27.191Z,71.55
2023-10-26T16:48:55.758Z,71.79
2023-10-26T16:51:22.716Z,72.03
2023-10-26T16:53:49.602Z,71.75
2023-10-26T16:56:16.420Z,72.21
2023-10-26T16:58:43.088Z,72.03
2023-10-26T17:01:10.873Z,72.57
2023-10-26T17:03:38.844Z,73.17
2023-10-26T17:06:05.694Z,73.03
2023-10-26T17:08:32.524Z,73.39
2023-10-26T17:10:59.481Z,73.46
2023-10-26T17:13:27.683Z,73.70
2023-10-26T17:15:54.834Z,74.39
2023-10-26T17:18:26.666Z,74.31
2023-10-26T17:20:57.730Z,74.64
2023-10-26T17:23:24.955Z,74.44
2023-10-26T17:25:51.718Z,74.40
2023-10-26T17:28:18.695Z,74.48
2023-10-26T17:30:45.579Z,75.05
2023-10-26T17:33:14.680Z,75.25
2023-10-26T17:35:43.890Z,75.93
2023-10-26T17:38:11.007Z,75.80
2023-10-26T17:40:43.478Z,76.16
2023-10-26T17:43:13.018Z,76.21
2023-10-26T17:45:39.931Z,76.18
2023-10-26T17:48:07.289Z,76.43
2023-10-26T17:50:43.225Z,76.28
2023-10-26T17:53:10.271Z,76.68
2023-10-26T17:55:37.183Z,76.98
2023-10-26T17:58:07.201Z,77.18
2023-10-26T18:00:33.992Z,77.35
2023-10-26T18:03:03.793Z,77.43
2023-10-26T18:05:30.713Z,77.84
2023-10-26T18:07:57.478Z,77.98
2023-10-26T18:10:24.322Z,77.90
2023-10-26T18:12:53.556Z,78.33
2023-10-26T18:15:20.324Z,78.32
2023-10-26T18:17:47.880Z,78.65
2023-10-26T18:20:17.635Z,78.45
2023-10-26T18:22:45.513Z,78.68
2023-10-26T18:25:12.281Z,78.61
2023-10-26T18:27:46.328Z,78.66
2023-10-26T18:30:13.825Z,78.77
2023-10-26T18:32:43.434Z,78.72
2023-10-26T18:35:13.014Z,78.61
2023-10-26T18:37:44.125Z,78.57
2023-10-26T18:40:11.239Z,78.42
2023-10-26T18:42:41.023Z,78.65
2023-10-26T18:45:08.086Z,78.53
2023-10-26T18:47:34.788Z,78.67
2023-10-26T18:50:01.950Z,78.72
2023-10-26T18:52:29.302Z,78.72
2023-10-26T18:55:01.356Z,78.60
2023-10-26T18:57:28.150Z,78.85
2023-10-26T18:59:54.864Z,78.82
2023-10-26T19:02:21.631Z,78.88
2023-10-26T19:04:49.162Z,79.11
2023-10-26T19:07:15.926Z,79.24
2023-10-26T19:09:44.233Z,79.13
2023-10-26T19:12:12.286Z,79.06
2023-10-26T19:14:42.037Z,79.04
2023-10-26T19:17:10.050Z,78.96
2023-10-26T19:19:37.239Z,79.27
2023-10-26T19:22:04.165Z,79.12
2023-10-26T19:24:33.163Z,79.26
2023-10-26T19:26:59.979Z,79.57
2023-10-26T19:29:26.695Z,80.10
2023-10-26T19:31:53.428Z,80.09
2023-10-26T19:34:20.393Z,80.63
2023-10-26T19:36:47.236Z,81.04
2023-10-26T19:39:14.003Z,81.46
2023-10-26T19:41:40.707Z,81.41
2023-10-26T19:44:09.978Z,80.94
2023-10-26T19:46:39.640Z,80.82
2023-10-26T19:49:07.490Z,80.72
2023-10-26T19:51:34.440Z,80.71
2023-10-26T19:54:01.121Z,80.85
2023-10-26T19:56:27.872Z,80.97
2023-10-26T19:58:54.611Z,80.79
2023-10-26T20:01:21.533Z,80.79
2023-10-26T20:03:48.696Z,80.68
2023-10-26T20:06:17.896Z,80.58
2023-10-26T20:08:44.655Z,80.75
2023-10-26T20:11:11.348Z,80.87
2023-10-26T20:13:38.003Z,80.97
2023-10-26T20:16:07.536Z,80.89
2023-10-26T20:18:41.196Z,80.53
2023-10-26T20:21:09.676Z,80.75
2023-10-26T20:23:37.468Z,80.91
2023-10-26T20:26:06.957Z,80.95
2023-10-26T20:28:34.887Z,81.03
2023-10-26T20:31:01.677Z,81.28
2023-10-26T20:33:28.593Z,81.41
2023-10-26T20:35:55.510Z,81.73
2023-10-26T20:38:22.462Z,81.24
2023-10-26T20:40:49.710Z,81.37
2023-10-26T20:43:16.503Z,81.26
2023-10-26T20:45:43.378Z,81.26
2023-10-26T20:48:10.191Z,81.40
2023-10-26T20:50:37.033Z,81.30
2023-10-26T20:53:04.907Z,81.22
2023-10-26T20:55:31.632Z,81.06
2023-10-26T20:57:58.495Z,80.97
2023-10-26T21:00:25.329Z,80.86
2023-10-26T21:02:52.227Z,81.03
2023-10-26T21:05:18.967Z,81.09
2023-10-26T21:07:45.673Z,80.99
2023-10-26T21:10:12.707Z,80.93
2023-10-26T21:12:39.557Z,80.95
2023-10-26T21:15:07.368Z,81.32
2023-10-26T21:17:36.727Z,81.39
2023-10-26T21:20:07.403Z,81.44
2023-10-26T21:22:34.652Z,81.69
2023-10-26T21:25:05.153Z,81.80
2023-10-26T21:27:32.109Z,81.96
2023-10-26T21:29:58.775Z,81.57
2023-10-26T21:32:25.423Z,81.48
2023-10-26T21:34:52.196Z,81.10
2023-10-26T21:37:18.962Z,81.28
2023-10-26T21:39:46.080Z,81.45
2023-10-26T21:42:13.014Z,82.00
2023-10-26T21:44:39.732Z,82.22
2023-10-26T21:47:06.548Z,82.79
2023-10-26T21:49:33.236Z,82.10
2023-10-26T21:52:00.384Z,81.99
2023-10-26T21:54:27.081Z,81.88
2023-10-26T21:56:53.795Z,82.36
2023-10-26T21:59:20.518Z,82.52
2023-10-26T22:01:47.759Z,83.08
2023-10-26T22:06:44.760Z,81.70
2023-10-26T22:09:11.483Z,81.50
2023-10-26T22:11:38.759Z,81.48
2023-10-26T22:14:06.584Z,81.90
2023-10-26T22:16:33.518Z,81.68
2023-10-26T22:19:00.391Z,81.89
2023-10-26T22:21:27.112Z,83.66
2023-10-26T22:23:54.409Z,82.77
2023-10-26T22:26:21.124Z,82.89
2023-10-26T22:28:47.904Z,83.74
2023-10-26T22:31:14.579Z,83.80
2023-10-26T22:33:41.323Z,83.30
2023-10-26T22:36:08.608Z,82.30
2023-10-26T22:38:36.533Z,81.64
2023-10-26T22:41:08.472Z,81.12
2023-10-26T22:43:35.256Z,80.58
2023-10-26T22:46:01.979Z,79.98
2023-10-26T22:48:28.765Z,79.92
2023-10-26T22:50:59.269Z,80.17
2023-10-26T22:53:26.867Z,79.74
2023-10-26T22:55:53.623Z,79.50
2023-10-26T22:58:20.622Z,79.48
2023-10-26T23:00:47.665Z,79.55
2023-10-26T23:03:14.455Z,79.50
2023-10-26T23:05:41.456Z,79.46
2023-10-26T23:08:09.387Z,79.48
2023-10-26T23:10:36.164Z,79.74
2023-10-26T23:13:03.471Z,79.47
2023-10-26T23:15:30.278Z,79.30
2023-10-26T23:17:57.209Z,79.47
2023-10-26T23:20:24.985Z,79.91
2023-10-26T23:22:51.823Z,79.97
2023-10-26T23:25:18.565Z,80.25
2023-10-26T23:27:45.344Z,80.27
2023-10-26T23:30:12.424Z,80.26
2023-10-26T23:32:39.083Z,80.36
2023-10-26T23:35:06.478Z,80.32
2023-10-26T23:37:33.241Z,80.51
2023-10-26T23:40:00.240Z,80.78
2023-10-26T23:42:27.062Z,81.31
2023-10-26T23:44:53.763Z,81.04
2023-10-26T23:47:20.446Z,81.06
2023-10-26T23:49:49.044Z,81.10
2023-10-26T23:52:15.842Z,81.00
2023-10-26T23:54:42.648Z,81.14
2023-10-26T23:57:09.593Z,81.25
2023-10-26T23:59:36.385Z,81.44
